Leathersville, Georgia
Current Conditions -  °F | °C
As of 10:55 AM on Friday 19 Dec 2014 (Local Time) from KHQU Reporting Station
Clear Clear  
Wind Chill: 54°   Ceiling: Unl
Heat Index: 54°   Visibility: 10mi
Dew Point: 41°   Wind: 5mph
Humidity: 62%   Direction: 60°ENE
Pressure: 30.2"   Gusts: NA
Location:  33.7816°N, 82.4511°W
Report Text: KHQU 191555Z AUTO 06004KT 10SM CLR 12/05 A3020 RMK AO1 T01230051
Loading
Personal Weather Stations






























Interactive Weather Map New forecast layout! Learn more

10-Day Weather Forecast

Advertisements
Track Severe Weather on mobile